Pagrindinis puslapis
METAR-TAF:

METAR-TAF

Oro uostai :

Forli, Italija

platuma: 44-12N, ilguma: 012-04E, Aukštis: 27 m

Dabartinis oras

Ataskaita buvo paskelbta 1 valandą ir 4 minutes, ne 12:50 UTC
Vėjas 4 kt iš Šiaurės/Šiaurės Vakarų
Temperatūra 20°C
Drėgmė 35%
Slėgis 1031 hPa
Matomumas 10 km arba daugiau
nėra debesų žemiau 1500 m ir nėra kamuolinių lietaus debesų

METAR: LIPK 251250Z 34004KT CAVOK 20/04 Q1031

Laikas: 14:54 (13:54 UTC)


TAF: trūkstamas

Orai ataskaitas ir orų prognozės (METAR, TAF).

turimą stotys yra geltonos ir raudonos taškus žemėlapyje.

Perkelti pele per norėdami pamatyti stoties vardą.

Tada spustelėkite, norėdami matyti oro stebėjimo ir prognozės.

Norėdami pakeisti žemėlapį: spustelėkite ant žalios mygtukų su juodo kryžiaus žemyn,; žalią mygtuką su brūkšneliu, jei norite nutolinti; arba žalių rodyklių gretimoms žemėlapius.


METAR-TAF: